sensor_id;sensor_type;location;lat;lon;timestamp;pressure;altitude;pressure_sealevel;temperature;humidity
15634;BME280;14654;48.898;8.308;2024-02-28T00:02:23;100363.69;;;7.41;100.00
15634;BME280;14654;48.898;8.308;2024-02-28T00:04:48;100362.72;;;7.21;100.00
15634;BME280;14654;48.898;8.308;2024-02-28T00:07:14;100361.00;;;7.21;100.00
15634;BME280;14654;48.898;8.308;2024-02-28T00:09:39;100373.06;;;7.30;100.00
15634;BME280;14654;48.898;8.308;2024-02-28T00:12:04;100369.53;;;7.11;100.00
15634;BME280;14654;48.898;8.308;2024-02-28T00:14:30;100369.59;;;7.17;100.00
15634;BME280;14654;48.898;8.308;2024-02-28T00:16:55;100362.69;;;7.13;100.00
15634;BME280;14654;48.898;8.308;2024-02-28T00:19:20;100373.94;;;7.27;100.00
15634;BME280;14654;48.898;8.308;2024-02-28T00:21:47;100373.81;;;7.12;100.00
15634;BME280;14654;48.898;8.308;2024-02-28T00:24:12;100371.97;;;6.91;100.00
15634;BME280;14654;48.898;8.308;2024-02-28T00:26:41;100376.13;;;6.71;100.00
15634;BME280;14654;48.898;8.308;2024-02-28T00:29:07;100384.69;;;6.74;100.00
15634;BME280;14654;48.898;8.308;2024-02-28T00:31:32;100384.66;;;6.67;100.00
15634;BME280;14654;48.898;8.308;2024-02-28T00:33:58;100388.06;;;6.68;100.00
15634;BME280;14654;48.898;8.308;2024-02-28T00:36:23;100376.13;;;6.71;100.00
15634;BME280;14654;48.898;8.308;2024-02-28T00:38:48;100390.69;;;6.73;100.00
15634;BME280;14654;48.898;8.308;2024-02-28T00:41:14;100379.53;;;6.72;100.00
15634;BME280;14654;48.898;8.308;2024-02-28T00:43:39;100382.91;;;6.68;100.00
15634;BME280;14654;48.898;8.308;2024-02-28T00:46:05;100392.34;;;6.69;100.00
15634;BME280;14654;48.898;8.308;2024-02-28T00:48:34;100392.41;;;6.70;100.00
15634;BME280;14654;48.898;8.308;2024-02-28T00:51:00;100387.28;;;6.77;100.00
15634;BME280;14654;48.898;8.308;2024-02-28T00:53:25;100389.91;;;6.83;100.00
15634;BME280;14654;48.898;8.308;2024-02-28T00:55:50;100392.59;;;6.98;100.00
15634;BME280;14654;48.898;8.308;2024-02-28T00:58:17;100399.38;;;6.89;100.00
15634;BME280;14654;48.898;8.308;2024-02-28T01:00:42;100402.00;;;6.93;100.00
15634;BME280;14654;48.898;8.308;2024-02-28T01:03:07;100396.75;;;6.82;100.00
15634;BME280;14654;48.898;8.308;2024-02-28T01:05:34;100400.19;;;6.78;100.00
15634;BME280;14654;48.898;8.308;2024-02-28T01:08:00;100400.13;;;6.75;100.00
15634;BME280;14654;48.898;8.308;2024-02-28T01:10:25;100400.06;;;6.67;100.00
15634;BME280;14654;48.898;8.308;2024-02-28T01:12:50;100396.59;;;6.61;100.00
15634;BME280;14654;48.898;8.308;2024-02-28T01:15:16;100403.44;;;6.60;100.00
15634;BME280;14654;48.898;8.308;2024-02-28T01:17:41;100400.81;;;6.55;100.00
15634;BME280;14654;48.898;8.308;2024-02-28T01:20:07;100402.50;;;6.50;100.00
15634;BME280;14654;48.898;8.308;2024-02-28T01:22:33;100396.41;;;6.42;100.00
15634;BME280;14654;48.898;8.308;2024-02-28T01:24:58;100400.63;;;6.35;100.00
15634;BME280;14654;48.898;8.308;2024-02-28T01:27:24;100404.09;;;6.37;100.00
15634;BME280;14654;48.898;8.308;2024-02-28T01:29:49;100395.44;;;6.31;100.00
15634;BME280;14654;48.898;8.308;2024-02-28T01:32:14;100394.44;;;6.18;100.00
15634;BME280;14654;48.898;8.308;2024-02-28T01:34:40;100395.19;;;6.09;100.00
15634;BME280;14654;48.898;8.308;2024-02-28T01:37:05;100397.59;;;5.97;100.00
15634;BME280;14654;48.898;8.308;2024-02-28T01:39:30;100401.81;;;5.90;100.00
15634;BME280;14654;48.898;8.308;2024-02-28T01:41:56;100402.56;;;5.83;100.00
15634;BME280;14654;48.898;8.308;2024-02-28T01:44:22;100392.25;;;5.78;100.00
15634;BME280;14654;48.898;8.308;2024-02-28T01:46:47;100400.78;;;5.74;100.00
15634;BME280;14654;48.898;8.308;2024-02-28T01:49:13;100398.13;;;5.69;100.00
15634;BME280;14654;48.898;8.308;2024-02-28T01:51:40;100399.78;;;5.64;100.00
15634;BME280;14654;48.898;8.308;2024-02-28T01:54:06;100403.97;;;5.59;100.00
15634;BME280;14654;48.898;8.308;2024-02-28T01:56:32;100405.59;;;5.52;100.00
15634;BME280;14654;48.898;8.308;2024-02-28T01:58:57;100416.66;;;5.48;100.00
15634;BME280;14654;48.898;8.308;2024-02-28T02:01:23;100412.34;;;5.44;100.00
15634;BME280;14654;48.898;8.308;2024-02-28T02:03:49;100417.38;;;5.38;100.00
15634;BME280;14654;48.898;8.308;2024-02-28T02:06:14;100422.47;;;5.34;100.00
15634;BME280;14654;48.898;8.308;2024-02-28T02:08:40;100419.00;;;5.29;100.00
15634;BME280;14654;48.898;8.308;2024-02-28T02:11:06;100423.19;;;5.24;100.00
15634;BME280;14654;48.898;8.308;2024-02-28T02:13:31;100428.25;;;5.21;100.00
15634;BME280;14654;48.898;8.308;2024-02-28T02:15:57;100430.78;;;5.18;100.00
15634;BME280;14654;48.898;8.308;2024-02-28T02:18:22;100429.88;;;5.16;100.00
15634;BME280;14654;48.898;8.308;2024-02-28T02:20:50;100432.44;;;5.14;100.00
15634;BME280;14654;48.898;8.308;2024-02-28T02:23:19;100434.13;;;5.12;100.00
15634;BME280;14654;48.898;8.308;2024-02-28T02:25:45;100438.34;;;5.09;100.00
15634;BME280;14654;48.898;8.308;2024-02-28T02:28:10;100442.53;;;5.03;100.00
15634;BME280;14654;48.898;8.308;2024-02-28T02:30:36;100441.56;;;4.97;100.00
15634;BME280;14654;48.898;8.308;2024-02-28T02:33:01;100444.03;;;4.91;100.00
15634;BME280;14654;48.898;8.308;2024-02-28T02:35:26;100447.34;;;4.85;100.00
15634;BME280;14654;48.898;8.308;2024-02-28T02:37:52;100451.56;;;4.81;100.00
15634;BME280;14654;48.898;8.308;2024-02-28T02:40:17;100455.84;;;4.81;100.00
15634;BME280;14654;48.898;8.308;2024-02-28T02:42:42;100460.09;;;4.80;100.00
15634;BME280;14654;48.898;8.308;2024-02-28T02:45:08;100463.47;;;4.79;100.00
15634;BME280;14654;48.898;8.308;2024-02-28T02:47:33;100466.06;;;4.79;100.00
15634;BME280;14654;48.898;8.308;2024-02-28T02:49:59;100480.66;;;4.82;100.00
15634;BME280;14654;48.898;8.308;2024-02-28T02:52:24;100479.00;;;4.85;100.00
15634;BME280;14654;48.898;8.308;2024-02-28T02:54:49;100479.09;;;4.92;100.00
15634;BME280;14654;48.898;8.308;2024-02-28T02:57:15;100481.75;;;4.96;100.00
15634;BME280;14654;48.898;8.308;2024-02-28T02:59:40;100489.47;;;4.99;100.00
15634;BME280;14654;48.898;8.308;2024-02-28T03:02:05;100494.72;;;5.07;100.00
15634;BME280;14654;48.898;8.308;2024-02-28T03:04:31;100502.53;;;5.12;100.00
15634;BME280;14654;48.898;8.308;2024-02-28T03:06:56;100505.16;;;5.16;100.00
15634;BME280;14654;48.898;8.308;2024-02-28T03:09:21;100512.94;;;5.23;100.00
15634;BME280;14654;48.898;8.308;2024-02-28T03:11:46;100505.34;;;5.27;100.00
15634;BME280;14654;48.898;8.308;2024-02-28T03:14:12;100500.28;;;5.32;100.00
15634;BME280;14654;48.898;8.308;2024-02-28T03:16:44;100507.16;;;5.33;100.00
15634;BME280;14654;48.898;8.308;2024-02-28T03:19:10;100494.31;;;5.33;100.00
15634;BME280;14654;48.898;8.308;2024-02-28T03:21:36;100496.06;;;5.34;100.00
15634;BME280;14654;48.898;8.308;2024-02-28T03:24:02;100502.03;;;5.33;100.00
15634;BME280;14654;48.898;8.308;2024-02-28T03:26:27;100496.06;;;5.34;100.00
15634;BME280;14654;48.898;8.308;2024-02-28T03:28:52;100504.59;;;5.33;100.00
15634;BME280;14654;48.898;8.308;2024-02-28T03:31:18;100505.41;;;5.32;100.00
15634;BME280;14654;48.898;8.308;2024-02-28T03:33:43;100506.25;;;5.29;100.00
15634;BME280;14654;48.898;8.308;2024-02-28T03:36:08;100506.19;;;5.28;100.00
15634;BME280;14654;48.898;8.308;2024-02-28T03:38:34;100511.31;;;5.26;100.00
15634;BME280;14654;48.898;8.308;2024-02-28T03:40:59;100513.88;;;5.26;100.00
15634;BME280;14654;48.898;8.308;2024-02-28T03:43:24;100510.38;;;5.23;100.00
15634;BME280;14654;48.898;8.308;2024-02-28T03:45:50;100523.19;;;5.19;100.00
15634;BME280;14654;48.898;8.308;2024-02-28T03:48:15;100517.22;;;5.21;100.00
15634;BME280;14654;48.898;8.308;2024-02-28T03:50:40;100515.50;;;5.21;100.00
15634;BME280;14654;48.898;8.308;2024-02-28T03:53:06;100522.38;;;5.24;100.00
15634;BME280;14654;48.898;8.308;2024-02-28T03:55:31;100524.94;;;5.24;100.00
15634;BME280;14654;48.898;8.308;2024-02-28T03:57:57;100520.63;;;5.21;100.00
15634;BME280;14654;48.898;8.308;2024-02-28T04:00:22;100528.34;;;5.21;100.00
15634;BME280;14654;48.898;8.308;2024-02-28T04:02:47;100526.47;;;5.12;100.00
15634;BME280;14654;48.898;8.308;2024-02-28T04:05:13;100527.22;;;5.07;100.00
15634;BME280;14654;48.898;8.308;2024-02-28T04:07:38;100533.13;;;5.01;100.00
15634;BME280;14654;48.898;8.308;2024-02-28T04:10:04;100544.22;;;5.00;100.00
15634;BME280;14654;48.898;8.308;2024-02-28T04:12:30;100540.78;;;4.99;100.00
15634;BME280;14654;48.898;8.308;2024-02-28T04:14:56;100545.91;;;4.99;100.00
15634;BME280;14654;48.898;8.308;2024-02-28T04:17:21;100546.72;;;4.95;100.00
15634;BME280;14654;48.898;8.308;2024-02-28T04:19:46;100549.38;;;5.01;100.00
15634;BME280;14654;48.898;8.308;2024-02-28T04:22:11;100553.72;;;5.07;100.00
15634;BME280;14654;48.898;8.308;2024-02-28T04:24:37;100557.81;;;4.96;100.00
15634;BME280;14654;48.898;8.308;2024-02-28T04:27:02;100559.47;;;4.92;100.00
15634;BME280;14654;48.898;8.308;2024-02-28T04:29:29;100560.44;;;4.99;100.00
15634;BME280;14654;48.898;8.308;2024-02-28T04:31:55;100564.03;;;5.09;100.00
15634;BME280;14654;48.898;8.308;2024-02-28T04:34:20;100571.81;;;5.13;100.00
15634;BME280;14654;48.898;8.308;2024-02-28T04:36:45;100576.88;;;5.10;100.00
15634;BME280;14654;48.898;8.308;2024-02-28T04:39:11;100575.25;;;5.14;100.00
15634;BME280;14654;48.898;8.308;2024-02-28T04:41:36;100576.81;;;5.06;100.00
15634;BME280;14654;48.898;8.308;2024-02-28T04:44:01;100576.81;;;5.07;100.00
15634;BME280;14654;48.898;8.308;2024-02-28T04:46:26;100575.25;;;5.14;100.00
15634;BME280;14654;48.898;8.308;2024-02-28T04:48:52;100584.63;;;5.12;100.00
15634;BME280;14654;48.898;8.308;2024-02-28T04:51:17;100581.94;;;5.07;100.00
15634;BME280;14654;48.898;8.308;2024-02-28T04:53:43;100585.47;;;5.11;100.00
15634;BME280;14654;48.898;8.308;2024-02-28T04:56:08;100597.41;;;5.09;100.00
15634;BME280;14654;48.898;8.308;2024-02-28T04:58:35;100591.44;;;5.10;100.00
15634;BME280;14654;48.898;8.308;2024-02-28T05:01:01;100599.19;;;5.14;100.00
15634;BME280;14654;48.898;8.308;2024-02-28T05:03:26;100599.34;;;5.22;100.00
15634;BME280;14654;48.898;8.308;2024-02-28T05:05:51;100595.81;;;5.17;100.00
15634;BME280;14654;48.898;8.308;2024-02-28T05:08:19;100600.13;;;5.18;100.00
15634;BME280;14654;48.898;8.308;2024-02-28T05:10:45;100604.56;;;5.27;100.00
15634;BME280;14654;48.898;8.308;2024-02-28T05:13:10;100606.09;;;5.17;100.00
15634;BME280;14654;48.898;8.308;2024-02-28T05:15:35;100610.44;;;5.19;100.00
15634;BME280;14654;48.898;8.308;2024-02-28T05:18:00;100606.13;;;5.18;100.00
15634;BME280;14654;48.898;8.308;2024-02-28T05:20:26;100610.53;;;5.26;100.00
15634;BME280;14654;48.898;8.308;2024-02-28T05:22:51;100610.53;;;5.26;100.00
15634;BME280;14654;48.898;8.308;2024-02-28T05:25:17;100608.78;;;5.23;100.00
15634;BME280;14654;48.898;8.308;2024-02-28T05:27:42;100606.97;;;5.17;100.00
15634;BME280;14654;48.898;8.308;2024-02-28T05:30:08;100602.09;;;5.33;100.00
15634;BME280;14654;48.898;8.308;2024-02-28T05:32:33;100606.34;;;5.31;100.00
15634;BME280;14654;48.898;8.308;2024-02-28T05:34:59;100598.69;;;5.34;100.00
15634;BME280;14654;48.898;8.308;2024-02-28T05:37:24;100597.91;;;5.38;100.00
15634;BME280;14654;48.898;8.308;2024-02-28T05:39:50;100598.72;;;5.37;100.00
15634;BME280;14654;48.898;8.308;2024-02-28T05:42:15;100590.06;;;5.30;100.00
15634;BME280;14654;48.898;8.308;2024-02-28T05:44:47;100597.75;;;5.30;100.00
15634;BME280;14654;48.898;8.308;2024-02-28T05:47:12;100603.63;;;5.23;100.00
15634;BME280;14654;48.898;8.308;2024-02-28T05:49:38;100603.56;;;5.20;100.00
15634;BME280;14654;48.898;8.308;2024-02-28T05:52:04;100607.03;;;5.22;100.00
15634;BME280;14654;48.898;8.308;2024-02-28T05:54:30;100606.81;;;5.10;100.00
15634;BME280;14654;48.898;8.308;2024-02-28T05:56:56;100613.63;;;5.08;100.00
15634;BME280;14654;48.898;8.308;2024-02-28T05:59:21;100613.63;;;5.09;100.00
15634;BME280;14654;48.898;8.308;2024-02-28T06:01:46;100618.66;;;5.03;100.00
15634;BME280;14654;48.898;8.308;2024-02-28T06:04:12;100614.06;;;4.86;100.00
15634;BME280;14654;48.898;8.308;2024-02-28T06:06:38;100613.78;;;4.72;100.00
15634;BME280;14654;48.898;8.308;2024-02-28T06:09:03;100613.63;;;4.65;100.00
15634;BME280;14654;48.898;8.308;2024-02-28T06:11:28;100626.34;;;4.60;100.00
15634;BME280;14654;48.898;8.308;2024-02-28T06:13:54;100624.28;;;4.42;100.00
15634;BME280;14654;48.898;8.308;2024-02-28T06:16:19;100622.44;;;4.36;100.00
15634;BME280;14654;48.898;8.308;2024-02-28T06:18:44;100629.22;;;4.34;100.00
15634;BME280;14654;48.898;8.308;2024-02-28T06:21:10;100629.25;;;4.36;100.00
15634;BME280;14654;48.898;8.308;2024-02-28T06:23:35;100626.63;;;4.33;100.00
15634;BME280;14654;48.898;8.308;2024-02-28T06:26:00;100634.09;;;4.22;100.00
15634;BME280;14654;48.898;8.308;2024-02-28T06:28:26;100647.94;;;4.30;100.00
15634;BME280;14654;48.898;8.308;2024-02-28T06:30:51;100640.16;;;4.25;100.00
15634;BME280;14654;48.898;8.308;2024-02-28T06:33:17;100647.91;;;4.29;100.00
15634;BME280;14654;48.898;8.308;2024-02-28T06:35:42;100658.88;;;4.23;100.00
15634;BME280;14654;48.898;8.308;2024-02-28T06:38:07;100664.84;;;4.22;100.00
15634;BME280;14654;48.898;8.308;2024-02-28T06:40:33;100669.31;;;4.31;100.00
15634;BME280;14654;48.898;8.308;2024-02-28T06:43:00;100663.75;;;4.50;100.00
15634;BME280;14654;48.898;8.308;2024-02-28T06:45:25;100667.56;;;4.30;100.00
15634;BME280;14654;48.898;8.308;2024-02-28T06:47:51;100672.22;;;4.46;100.00
15634;BME280;14654;48.898;8.308;2024-02-28T06:50:16;100671.91;;;4.34;100.00
15634;BME280;14654;48.898;8.308;2024-02-28T06:52:42;100682.25;;;4.37;100.00
15634;BME280;14654;48.898;8.308;2024-02-28T06:55:07;100681.34;;;4.35;100.00
15634;BME280;14654;48.898;8.308;2024-02-28T06:57:41;100689.81;;;4.31;100.00
15634;BME280;14654;48.898;8.308;2024-02-28T07:00:08;100693.88;;;4.22;100.00
15634;BME280;14654;48.898;8.308;2024-02-28T07:02:34;100692.97;;;4.20;100.00
15634;BME280;14654;48.898;8.308;2024-02-28T07:05:00;100699.16;;;4.30;100.00
15634;BME280;14654;48.898;8.308;2024-02-28T07:07:26;100701.72;;;4.30;100.00
15634;BME280;14654;48.898;8.308;2024-02-28T07:09:51;100702.63;;;4.32;100.00
15634;BME280;14654;48.898;8.308;2024-02-28T07:12:16;100713.00;;;4.37;100.00
15634;BME280;14654;48.898;8.308;2024-02-28T07:14:41;100719.78;;;4.35;100.00
15634;BME280;14654;48.898;8.308;2024-02-28T07:17:07;100723.13;;;4.31;100.00
15634;BME280;14654;48.898;8.308;2024-02-28T07:19:32;100721.59;;;4.39;100.00
15634;BME280;14654;48.898;8.308;2024-02-28T07:21:58;100724.25;;;4.43;100.00
15634;BME280;14654;48.898;8.308;2024-02-28T07:24:23;100719.34;;;4.53;100.00
15634;BME280;14654;48.898;8.308;2024-02-28T07:26:48;100723.50;;;4.48;100.00
15634;BME280;14654;48.898;8.308;2024-02-28T07:29:15;100734.91;;;4.61;100.00
15634;BME280;14654;48.898;8.308;2024-02-28T07:31:40;100731.38;;;4.57;100.00
15634;BME280;14654;48.898;8.308;2024-02-28T07:34:06;100736.59;;;4.62;100.00
15634;BME280;14654;48.898;8.308;2024-02-28T07:36:31;100745.50;;;4.76;100.00
15634;BME280;14654;48.898;8.308;2024-02-28T07:38:56;100749.84;;;4.80;100.00
15634;BME280;14654;48.898;8.308;2024-02-28T07:41:22;100749.81;;;4.79;100.00
15634;BME280;14654;48.898;8.308;2024-02-28T07:43:47;100757.72;;;4.88;100.00
15634;BME280;14654;48.898;8.308;2024-02-28T07:46:12;100763.00;;;4.94;100.00
15634;BME280;14654;48.898;8.308;2024-02-28T07:48:38;100761.50;;;5.04;100.00
15634;BME280;14654;48.898;8.308;2024-02-28T07:51:05;100759.88;;;5.09;100.00
15634;BME280;14654;48.898;8.308;2024-02-28T07:53:30;100758.13;;;5.08;100.00
15634;BME280;14654;48.898;8.308;2024-02-28T07:55:56;100759.84;;;5.08;100.00
15634;BME280;14654;48.898;8.308;2024-02-28T07:58:21;100758.28;;;5.14;100.00
15634;BME280;14654;48.898;8.308;2024-02-28T08:00:46;100764.38;;;5.19;100.00
15634;BME280;14654;48.898;8.308;2024-02-28T08:03:12;100768.78;;;5.27;100.00
15634;BME280;14654;48.898;8.308;2024-02-28T08:05:37;100763.94;;;5.41;100.00
15634;BME280;14654;48.898;8.308;2024-02-28T08:08:07;100759.72;;;5.44;100.00
15634;BME280;14654;48.898;8.308;2024-02-28T08:10:33;100762.00;;;5.30;100.00
15634;BME280;14654;48.898;8.308;2024-02-28T08:12:58;100759.66;;;5.41;100.00
15634;BME280;14654;48.898;8.308;2024-02-28T08:15:24;100761.56;;;5.50;100.00
15634;BME280;14654;48.898;8.308;2024-02-28T08:17:49;100759.97;;;5.57;100.00
15634;BME280;14654;48.898;8.308;2024-02-28T08:20:14;100764.34;;;5.61;100.00
15634;BME280;14654;48.898;8.308;2024-02-28T08:22:40;100767.72;;;5.60;100.00
15634;BME280;14654;48.898;8.308;2024-02-28T08:25:05;100767.50;;;5.47;100.00
15634;BME280;14654;48.898;8.308;2024-02-28T08:27:31;100763.38;;;5.56;100.00
15634;BME280;14654;48.898;8.308;2024-02-28T08:29:59;100766.91;;;5.61;100.00
15634;BME280;14654;48.898;8.308;2024-02-28T08:32:24;100767.50;;;5.49;100.00
15634;BME280;14654;48.898;8.308;2024-02-28T08:34:49;100765.00;;;5.51;100.00
15634;BME280;14654;48.898;8.308;2024-02-28T08:37:15;100765.84;;;5.49;100.00
15634;BME280;14654;48.898;8.308;2024-02-28T08:39:41;100762.66;;;5.63;100.00
15634;BME280;14654;48.898;8.308;2024-02-28T08:42:06;100758.47;;;5.68;100.00
15634;BME280;14654;48.898;8.308;2024-02-28T08:44:31;100765.53;;;5.80;100.00
15634;BME280;14654;48.898;8.308;2024-02-28T08:46:57;100764.97;;;5.97;100.00
15634;BME280;14654;48.898;8.308;2024-02-28T08:49:22;100772.84;;;6.03;100.00
15634;BME280;14654;48.898;8.308;2024-02-28T08:51:48;100770.34;;;6.07;100.00
15634;BME280;14654;48.898;8.308;2024-02-28T08:54:13;100768.75;;;6.16;100.00
15634;BME280;14654;48.898;8.308;2024-02-28T08:56:38;100770.53;;;6.20;100.00
15634;BME280;14654;48.898;8.308;2024-02-28T08:59:04;100760.41;;;6.29;100.00
15634;BME280;14654;48.898;8.308;2024-02-28T09:01:29;100757.94;;;6.34;100.00
15634;BME280;14654;48.898;8.308;2024-02-28T09:03:54;100757.94;;;6.34;100.00
15634;BME280;14654;48.898;8.308;2024-02-28T09:06:20;100753.81;;;6.47;100.00
15634;BME280;14654;48.898;8.308;2024-02-28T09:08:45;100762.44;;;6.49;100.00
15634;BME280;14654;48.898;8.308;2024-02-28T09:11:11;100762.31;;;6.41;100.00
15634;BME280;14654;48.898;8.308;2024-02-28T09:13:36;100764.16;;;6.48;100.00
15634;BME280;14654;48.898;8.308;2024-02-28T09:16:02;100765.13;;;6.56;100.00
15634;BME280;14654;48.898;8.308;2024-02-28T09:18:27;100761.72;;;6.58;100.00
15634;BME280;14654;48.898;8.308;2024-02-28T09:20:53;100770.31;;;6.60;100.00
15634;BME280;14654;48.898;8.308;2024-02-28T09:23:18;100778.03;;;6.60;100.00
15634;BME280;14654;48.898;8.308;2024-02-28T09:25:44;100772.91;;;6.61;100.00
15634;BME280;14654;48.898;8.308;2024-02-28T09:28:09;100776.53;;;6.74;100.00
15634;BME280;14654;48.898;8.308;2024-02-28T09:30:38;100772.28;;;6.76;100.00
15634;BME280;14654;48.898;8.308;2024-02-28T09:33:03;100772.25;;;6.75;100.00
15634;BME280;14654;48.898;8.308;2024-02-28T09:35:28;100772.34;;;6.81;100.00
15634;BME280;14654;48.898;8.308;2024-02-28T09:37:54;100771.44;;;6.79;100.00
15634;BME280;14654;48.898;8.308;2024-02-28T09:40:19;100768.03;;;6.78;100.00
15634;BME280;14654;48.898;8.308;2024-02-28T09:43:01;100768.09;;;6.84;100.00
15634;BME280;14654;48.898;8.308;2024-02-28T09:45:28;100771.59;;;6.90;100.00
15634;BME280;14654;48.898;8.308;2024-02-28T09:47:56;100769.19;;;7.00;100.00
15634;BME280;14654;48.898;8.308;2024-02-28T09:50:22;100775.28;;;7.09;100.00
15634;BME280;14654;48.898;8.308;2024-02-28T09:52:48;100776.28;;;7.19;100.00
15634;BME280;14654;48.898;8.308;2024-02-28T09:55:13;100776.38;;;7.25;100.00
15634;BME280;14654;48.898;8.308;2024-02-28T09:57:40;100786.69;;;7.28;100.00
15634;BME280;14654;48.898;8.308;2024-02-28T10:00:07;100784.09;;;7.28;100.00
15634;BME280;14654;48.898;8.308;2024-02-28T10:02:33;100785.94;;;7.35;100.00
15634;BME280;14654;48.898;8.308;2024-02-28T10:04:59;100781.63;;;7.34;100.00
15634;BME280;14654;48.898;8.308;2024-02-28T10:07:26;100786.88;;;7.43;100.00
15634;BME280;14654;48.898;8.308;2024-02-28T10:09:52;100786.78;;;7.36;100.00
15634;BME280;14654;48.898;8.308;2024-02-28T10:12:17;100782.66;;;7.48;100.00
15634;BME280;14654;48.898;8.308;2024-02-28T10:14:44;100783.53;;;7.52;100.00
15634;BME280;14654;48.898;8.308;2024-02-28T10:17:09;100790.47;;;7.58;100.00
15634;BME280;14654;48.898;8.308;2024-02-28T10:19:34;100790.53;;;7.62;100.00
15634;BME280;14654;48.898;8.308;2024-02-28T10:22:00;100802.66;;;7.73;100.00
15634;BME280;14654;48.898;8.308;2024-02-28T10:24:25;100806.97;;;7.74;100.00
15634;BME280;14654;48.898;8.308;2024-02-28T10:26:50;100814.72;;;7.75;100.00
15634;BME280;14654;48.898;8.308;2024-02-28T10:29:23;100829.28;;;7.73;100.00
15634;BME280;14654;48.898;8.308;2024-02-28T10:31:49;100827.63;;;7.80;100.00
15634;BME280;14654;48.898;8.308;2024-02-28T10:34:18;100823.28;;;7.74;100.00
15634;BME280;14654;48.898;8.308;2024-02-28T10:36:46;100826.88;;;7.87;100.00
15634;BME280;14654;48.898;8.308;2024-02-28T10:39:12;100831.16;;;7.85;100.00
15634;BME280;14654;48.898;8.308;2024-02-28T10:41:38;100839.63;;;7.76;100.00
15634;BME280;14654;48.898;8.308;2024-02-28T10:44:04;100843.13;;;7.82;100.00
15634;BME280;14654;48.898;8.308;2024-02-28T10:46:30;100833.63;;;7.79;100.00
15634;BME280;14654;48.898;8.308;2024-02-28T10:48:56;100835.44;;;7.85;100.00
15634;BME280;14654;48.898;8.308;2024-02-28T10:51:26;100837.19;;;7.86;100.00
15634;BME280;14654;48.898;8.308;2024-02-28T10:54:19;100839.84;;;7.97;100.00
15634;BME280;14654;48.898;8.308;2024-02-28T10:56:46;100833.06;;;8.05;100.00
15634;BME280;14654;48.898;8.308;2024-02-28T10:59:13;100829.69;;;8.11;100.00
15634;BME280;14654;48.898;8.308;2024-02-28T11:01:41;100828.88;;;8.16;100.00
15634;BME280;14654;48.898;8.308;2024-02-28T11:04:08;100834.88;;;8.15;100.00
15634;BME280;14654;48.898;8.308;2024-02-28T11:06:33;100834.03;;;8.18;100.00
15634;BME280;14654;48.898;8.308;2024-02-28T11:09:00;100831.53;;;8.24;100.00
15634;BME280;14654;48.898;8.308;2024-02-28T11:11:30;100829.09;;;8.39;100.00
15634;BME280;14654;48.898;8.308;2024-02-28T11:13:57;100832.56;;;8.42;100.00
15634;BME280;14654;48.898;8.308;2024-02-28T11:16:30;100825.66;;;8.39;100.00
15634;BME280;14654;48.898;8.308;2024-02-28T11:18:56;100836.97;;;8.50;100.00
15634;BME280;14654;48.898;8.308;2024-02-28T11:21:26;100836.13;;;8.51;100.00
15634;BME280;14654;48.898;8.308;2024-02-28T11:23:51;100838.69;;;8.53;100.00
15634;BME280;14654;48.898;8.308;2024-02-28T11:26:17;100834.41;;;8.53;100.00
15634;BME280;14654;48.898;8.308;2024-02-28T11:28:43;100837.94;;;8.66;100.00
15634;BME280;14654;48.898;8.308;2024-02-28T11:31:08;100835.47;;;8.80;100.00
15634;BME280;14654;48.898;8.308;2024-02-28T11:33:35;100833.81;;;8.87;100.00
15634;BME280;14654;48.898;8.308;2024-02-28T11:36:01;100839.09;;;9.07;100.00
15634;BME280;14654;48.898;8.308;2024-02-28T11:38:28;100833.09;;;9.13;100.00
15634;BME280;14654;48.898;8.308;2024-02-28T11:40:54;100833.25;;;9.39;100.00
15634;BME280;14654;48.898;8.308;2024-02-28T11:43:20;100832.44;;;9.56;100.00
15634;BME280;14654;48.898;8.308;2024-02-28T11:45:46;100833.31;;;9.59;100.00
15634;BME280;14654;48.898;8.308;2024-02-28T11:48:13;100827.19;;;9.36;100.00
15634;BME280;14654;48.898;8.308;2024-02-28T11:50:39;100822.00;;;9.33;100.00
15634;BME280;14654;48.898;8.308;2024-02-28T11:53:04;100829.72;;;9.31;100.00
15634;BME280;14654;48.898;8.308;2024-02-28T11:55:30;100825.41;;;9.24;100.00
15634;BME280;14654;48.898;8.308;2024-02-28T11:57:55;100821.97;;;9.20;100.00
15634;BME280;14654;48.898;8.308;2024-02-28T12:00:21;100825.44;;;9.27;100.00
15634;BME280;14654;48.898;8.308;2024-02-28T12:02:46;100822.03;;;9.36;100.00
15634;BME280;14654;48.898;8.308;2024-02-28T12:05:12;100825.34;;;9.11;100.00
15634;BME280;14654;48.898;8.308;2024-02-28T12:07:37;100817.59;;;9.11;100.00
15634;BME280;14654;48.898;8.308;2024-02-28T12:10:03;100811.63;;;9.23;100.00
15634;BME280;14654;48.898;8.308;2024-02-28T12:12:29;100815.13;;;9.30;100.00
15634;BME280;14654;48.898;8.308;2024-02-28T12:14:58;100807.31;;;9.25;100.00
15634;BME280;14654;48.898;8.308;2024-02-28T12:17:25;100814.28;;;9.40;100.00
15634;BME280;14654;48.898;8.308;2024-02-28T12:19:50;100804.00;;;9.51;100.00
15634;BME280;14654;48.898;8.308;2024-02-28T12:22:16;100804.91;;;9.64;100.00
15634;BME280;14654;48.898;8.308;2024-02-28T12:24:41;100799.78;;;9.73;100.00
15634;BME280;14654;48.898;8.308;2024-02-28T12:27:07;100800.66;;;9.85;100.00
15634;BME280;14654;48.898;8.308;2024-02-28T12:29:32;100791.94;;;9.53;98.80
15634;BME280;14654;48.898;8.308;2024-02-28T12:31:58;100787.69;;;9.66;99.62
15634;BME280;14654;48.898;8.308;2024-02-28T12:34:23;100792.88;;;9.83;99.29
15634;BME280;14654;48.898;8.308;2024-02-28T12:36:48;100786.84;;;9.80;97.55
15634;BME280;14654;48.898;8.308;2024-02-28T12:39:14;100779.09;;;9.83;97.49
15634;BME280;14654;48.898;8.308;2024-02-28T12:41:39;100777.38;;;9.86;98.98
15634;BME280;14654;48.898;8.308;2024-02-28T12:44:05;100777.41;;;10.00;99.05